createdAt,value
2019-04-25T00:00:17.282Z,87.10
2019-04-25T00:02:46.496Z,87.10
2019-04-25T00:05:16.423Z,86.90
2019-04-25T00:07:45.567Z,87.80
2019-04-25T00:10:15.316Z,88.40
2019-04-25T00:12:44.596Z,88.30
2019-04-25T00:15:13.936Z,88.20
2019-04-25T00:17:44.412Z,88.20
2019-04-25T00:20:14.662Z,88.50
2019-04-25T00:22:49.210Z,89.10
2019-04-25T00:25:25.816Z,89.00
2019-04-25T00:27:54.800Z,88.70
2019-04-25T00:30:25.482Z,88.80
2019-04-25T00:32:54.520Z,89.20
2019-04-25T00:35:23.506Z,89.00
2019-04-25T00:37:53.315Z,89.40
2019-04-25T00:40:22.757Z,89.20
2019-04-25T00:42:52.616Z,89.00
2019-04-25T00:45:22.535Z,88.50
2019-04-25T00:47:52.917Z,88.50
2019-04-25T00:50:22.153Z,88.90
2019-04-25T00:52:53.278Z,89.50
2019-04-25T00:55:28.514Z,88.80
2019-04-25T00:57:54.045Z,88.50
2019-04-25T01:00:41.618Z,88.70
2019-04-25T01:03:12.329Z,89.10
2019-04-25T01:05:42.540Z,90.20
2019-04-25T01:08:12.508Z,91.00
2019-04-25T01:10:41.656Z,91.00
2019-04-25T01:13:11.303Z,91.20
2019-04-25T01:15:40.399Z,91.40
2019-04-25T01:18:09.586Z,91.30
2019-04-25T01:20:38.887Z,91.40
2019-04-25T01:23:08.071Z,91.40
2019-04-25T01:25:40.891Z,91.90
2019-04-25T01:28:08.161Z,91.70
2019-04-25T01:30:37.179Z,91.60
2019-04-25T01:33:08.024Z,92.00
2019-04-25T01:35:48.455Z,92.20
2019-04-25T01:38:19.332Z,92.00
2019-04-25T01:40:58.865Z,91.90
2019-04-25T01:43:38.689Z,91.80
2019-04-25T01:46:09.354Z,91.80
2019-04-25T01:48:38.424Z,91.60
2019-04-25T01:51:07.700Z,92.10
2019-04-25T01:53:36.786Z,92.70
2019-04-25T01:56:07.880Z,92.40
2019-04-25T01:58:36.832Z,92.30
2019-04-25T02:01:06.192Z,92.60
2019-04-25T02:03:35.668Z,92.30
2019-04-25T02:06:05.160Z,92.40
2019-04-25T02:08:34.225Z,92.40
2019-04-25T02:11:14.170Z,92.80
2019-04-25T02:13:43.776Z,92.90
2019-04-25T02:16:14.225Z,92.70
2019-04-25T02:18:43.781Z,92.70
2019-04-25T02:21:13.715Z,92.80
2019-04-25T02:23:44.201Z,92.60
2019-04-25T02:26:18.193Z,92.60
2019-04-25T02:28:44.218Z,92.70
2019-04-25T02:31:15.358Z,93.10
2019-04-25T02:33:44.377Z,92.90
2019-04-25T02:36:15.038Z,92.80
2019-04-25T02:38:44.422Z,92.80
2019-04-25T02:41:14.699Z,92.80
2019-04-25T02:43:45.017Z,92.60
2019-04-25T02:46:19.004Z,92.60
2019-04-25T02:49:09.103Z,92.50
2019-04-25T02:51:56.202Z,92.80
2019-04-25T02:54:24.534Z,92.60
2019-04-25T02:56:54.710Z,92.90
2019-04-25T02:59:25.395Z,92.50
2019-04-25T03:01:57.028Z,92.40
2019-04-25T03:04:25.806Z,92.50
2019-04-25T03:06:55.593Z,92.40
2019-04-25T03:09:25.288Z,92.30
2019-04-25T03:11:54.944Z,92.30
2019-04-25T03:14:26.461Z,92.40
2019-04-25T03:16:55.102Z,92.30
2019-04-25T03:19:34.879Z,92.30
2019-04-25T03:22:11.512Z,92.20
2019-04-25T03:24:39.271Z,92.10
2019-04-25T03:27:09.156Z,92.40
2019-04-25T03:29:39.166Z,92.10
2019-04-25T03:32:12.054Z,92.30
2019-04-25T03:34:39.117Z,92.10
2019-04-25T03:37:08.119Z,92.40
2019-04-25T03:39:37.181Z,92.40
2019-04-25T03:42:06.278Z,92.10
2019-04-25T03:44:35.320Z,92.60
2019-04-25T03:47:06.434Z,92.60
2019-04-25T03:49:35.282Z,92.50
2019-04-25T03:52:05.558Z,92.40
2019-04-25T03:54:35.458Z,92.40
2019-04-25T03:57:06.651Z,92.70
2019-04-25T03:59:35.858Z,92.70
2019-04-25T04:02:05.875Z,92.60
2019-04-25T04:04:35.857Z,92.60
2019-04-25T04:07:07.345Z,92.40
2019-04-25T04:09:35.629Z,92.50
2019-04-25T04:12:05.560Z,92.60
2019-04-25T04:14:35.609Z,92.60
2019-04-25T04:17:24.556Z,92.60
2019-04-25T04:20:01.022Z,92.40
2019-04-25T04:22:48.280Z,92.40
2019-04-25T04:25:18.933Z,92.40
2019-04-25T04:27:48.207Z,92.30
2019-04-25T04:30:17.325Z,92.40
2019-04-25T04:32:46.252Z,92.20
2019-04-25T04:35:16.162Z,92.40
2019-04-25T04:37:45.880Z,92.50
2019-04-25T04:40:17.112Z,92.60
2019-04-25T04:42:45.613Z,92.70
2019-04-25T04:45:15.755Z,92.80
2019-04-25T04:47:45.609Z,92.60
2019-04-25T04:50:15.372Z,91.90
2019-04-25T04:52:44.656Z,92.10
2019-04-25T04:55:16.048Z,91.80
2019-04-25T04:57:44.926Z,91.70
2019-04-25T05:00:15.516Z,91.60
2019-04-25T05:02:53.365Z,91.60
2019-04-25T05:05:30.645Z,91.60
2019-04-25T05:08:04.297Z,91.70
2019-04-25T05:10:33.318Z,91.80
2019-04-25T05:13:04.226Z,91.80
2019-04-25T05:15:33.422Z,91.90
2019-04-25T05:18:04.053Z,92.00
2019-04-25T05:20:34.158Z,92.10
2019-04-25T05:23:04.185Z,92.10
2019-04-25T05:25:34.510Z,92.40
2019-04-25T05:28:05.308Z,92.40
2019-04-25T05:30:36.002Z,92.20
2019-04-25T05:33:05.377Z,92.40
2019-04-25T05:35:34.513Z,92.70
2019-04-25T05:38:03.529Z,92.90
2019-04-25T05:40:34.817Z,92.90
2019-04-25T05:43:05.468Z,92.90
2019-04-25T05:45:34.678Z,92.80
2019-04-25T05:48:05.825Z,92.70
2019-04-25T05:50:34.621Z,92.70
2019-04-25T05:53:04.278Z,92.70
2019-04-25T05:55:34.127Z,92.70
2019-04-25T05:58:03.986Z,93.00
2019-04-25T06:00:33.998Z,93.60
2019-04-25T06:03:03.769Z,93.60
2019-04-25T06:05:33.654Z,94.00
2019-04-25T06:08:04.366Z,93.50
2019-04-25T06:10:47.570Z,93.40
2019-04-25T06:13:23.845Z,93.40
2019-04-25T06:15:54.121Z,93.90
2019-04-25T06:18:27.740Z,93.70
2019-04-25T06:20:56.971Z,93.70
2019-04-25T06:23:46.120Z,93.40
2019-04-25T06:26:25.000Z,93.40
2019-04-25T06:28:53.676Z,93.10
2019-04-25T06:31:19.724Z,92.80
2019-04-25T06:33:49.156Z,92.80
2019-04-25T06:36:18.344Z,92.70
2019-04-25T06:38:47.505Z,92.60
2019-04-25T06:41:16.921Z,92.40
2019-04-25T06:43:47.668Z,92.40
2019-04-25T06:46:33.899Z,92.50
2019-04-25T06:49:07.464Z,92.20
2019-04-25T06:51:50.279Z,91.90
2019-04-25T06:54:21.738Z,92.10
2019-04-25T06:56:51.110Z,91.60
2019-04-25T06:59:20.243Z,91.40
2019-04-25T07:01:49.596Z,91.30
2019-04-25T07:04:18.607Z,91.00
2019-04-25T07:06:49.445Z,90.80
2019-04-25T07:09:18.260Z,90.90
2019-04-25T07:11:48.233Z,90.40
2019-04-25T07:14:17.392Z,90.50
2019-04-25T07:16:46.543Z,90.50
2019-04-25T07:19:17.574Z,90.30
2019-04-25T07:21:46.284Z,90.30
2019-04-25T07:24:17.493Z,90.20
2019-04-25T07:26:50.655Z,90.00
2019-04-25T07:29:37.749Z,89.30
2019-04-25T07:32:17.413Z,89.00
2019-04-25T07:34:46.595Z,89.10
2019-04-25T07:37:15.711Z,88.80
2019-04-25T07:39:44.981Z,88.10
2019-04-25T07:42:14.150Z,87.70
2019-04-25T07:44:52.106Z,87.50
2019-04-25T07:47:15.826Z,86.80
2019-04-25T07:49:45.082Z,86.10
2019-04-25T07:52:14.127Z,86.20
2019-04-25T07:54:44.012Z,85.70
2019-04-25T07:57:13.662Z,85.30
2019-04-25T07:59:43.641Z,84.30
2019-04-25T08:02:13.382Z,84.00
2019-04-25T08:04:44.222Z,84.00
2019-04-25T08:07:14.256Z,83.70
2019-04-25T08:09:44.279Z,82.70
2019-04-25T08:25:39.211Z,80.40
2019-04-25T08:28:08.471Z,75.10
2019-04-25T08:30:38.156Z,76.00
2019-04-25T08:33:07.641Z,77.50
2019-04-25T08:35:36.733Z,77.20
2019-04-25T08:38:06.015Z,74.90
2019-04-25T08:40:37.337Z,74.90
2019-04-25T08:43:05.996Z,73.60
2019-04-25T08:45:37.376Z,74.50
2019-04-25T08:48:07.047Z,73.00
2019-04-25T08:50:41.208Z,74.30
2019-04-25T08:53:11.238Z,73.80
2019-04-25T08:55:41.962Z,72.70
2019-04-25T08:58:13.788Z,71.60
2019-04-25T09:00:44.785Z,71.10
2019-04-25T09:03:18.485Z,71.10
2019-04-25T09:05:49.284Z,69.20
2019-04-25T09:08:18.598Z,67.00
2019-04-25T09:10:47.934Z,66.60
2019-04-25T09:13:17.064Z,66.30
2019-04-25T09:15:46.107Z,66.80
2019-04-25T09:18:15.044Z,67.00
2019-04-25T09:20:46.648Z,65.70
2019-04-25T09:23:14.990Z,61.20
2019-04-25T09:25:45.803Z,59.10
2019-04-25T09:28:14.689Z,57.80
2019-04-25T09:30:44.822Z,56.50
2019-04-25T09:33:14.793Z,55.20
2019-04-25T09:35:45.698Z,54.90
2019-04-25T09:38:14.741Z,54.50
2019-04-25T09:40:44.465Z,53.70
2019-04-25T09:43:14.669Z,53.30
2019-04-25T09:45:46.100Z,52.40
2019-04-25T09:48:19.790Z,51.30
2019-04-25T09:51:08.486Z,50.10
2019-04-25T09:53:44.767Z,49.90
2019-04-25T09:56:11.488Z,49.20
2019-04-25T09:58:48.269Z,48.40
2019-04-25T10:01:17.088Z,49.10
2019-04-25T10:03:47.170Z,49.40
2019-04-25T10:06:18.432Z,49.50
2019-04-25T10:08:47.524Z,49.50
2019-04-25T10:11:17.054Z,49.30
2019-04-25T10:13:49.113Z,49.20
2019-04-25T10:16:18.321Z,50.00
2019-04-25T10:18:47.640Z,50.00
2019-04-25T10:21:17.401Z,50.30
2019-04-25T10:23:46.815Z,50.20
2019-04-25T10:26:16.432Z,50.40
2019-04-25T10:28:45.545Z,48.90
2019-04-25T10:31:14.798Z,47.50
2019-04-25T10:33:46.646Z,47.40
2019-04-25T10:36:14.692Z,47.60
2019-04-25T10:38:46.991Z,46.80
2019-04-25T10:41:15.189Z,46.80
2019-04-25T10:43:44.227Z,46.70
2019-04-25T10:46:14.161Z,46.60
2019-04-25T10:48:44.089Z,46.60
2019-04-25T10:51:13.895Z,46.60
2019-04-25T10:53:45.423Z,46.20
2019-04-25T10:56:14.306Z,46.10
2019-04-25T10:58:44.471Z,45.60
2019-04-25T11:01:15.292Z,44.40
2019-04-25T11:03:46.184Z,44.90
2019-04-25T11:06:16.840Z,45.50
2019-04-25T11:08:46.983Z,43.90
2019-04-25T11:11:16.347Z,43.70
2019-04-25T11:13:46.559Z,43.60
2019-04-25T11:16:16.340Z,43.80
2019-04-25T11:18:46.340Z,44.40
2019-04-25T11:21:15.590Z,44.20
2019-04-25T11:23:47.590Z,43.50
2019-04-25T11:26:15.801Z,43.30
2019-04-25T11:28:45.424Z,42.70
2019-04-25T11:31:16.377Z,41.90
2019-04-25T11:33:45.395Z,40.60
2019-04-25T11:36:17.905Z,40.30
2019-04-25T11:39:04.718Z,40.30
2019-04-25T11:41:34.222Z,40.20
2019-04-25T11:44:03.543Z,39.70
2019-04-25T11:46:33.337Z,39.00
2019-04-25T11:49:04.418Z,38.20
2019-04-25T11:51:34.094Z,38.10
2019-04-25T11:54:03.615Z,38.00
2019-04-25T11:56:34.229Z,37.30
2019-04-25T11:59:04.527Z,37.50
2019-04-25T12:01:33.780Z,37.90
2019-04-25T12:04:04.081Z,36.80
2019-04-25T12:06:33.634Z,35.80
2019-04-25T12:09:04.104Z,37.00
2019-04-25T12:11:34.206Z,37.40
2019-04-25T12:14:04.314Z,37.30
2019-04-25T12:16:33.645Z,36.60
2019-04-25T12:19:02.810Z,37.60
2019-04-25T12:21:31.857Z,38.40
2019-04-25T12:24:03.725Z,37.90
2019-04-25T12:26:33.596Z,37.90
2019-04-25T12:29:04.405Z,37.80
2019-04-25T12:31:34.169Z,38.10
2019-04-25T12:34:03.564Z,38.40
2019-04-25T12:36:34.111Z,38.50
2019-04-25T12:39:04.371Z,38.80
2019-04-25T12:41:33.512Z,39.10
2019-04-25T12:44:08.809Z,39.60
2019-04-25T12:46:43.598Z,39.00
2019-04-25T12:49:13.104Z,39.30
2019-04-25T12:51:43.857Z,38.70
2019-04-25T12:54:13.844Z,38.80
2019-04-25T12:56:43.359Z,38.60
2019-04-25T12:59:12.831Z,38.90
2019-04-25T13:01:43.388Z,39.80
2019-04-25T13:04:12.529Z,40.20
2019-04-25T13:06:41.670Z,39.70
2019-04-25T13:09:12.944Z,39.60
2019-04-25T13:11:43.403Z,39.10
2019-04-25T13:14:12.534Z,39.50
2019-04-25T13:16:41.572Z,39.10
2019-04-25T13:19:20.085Z,38.80
2019-04-25T13:21:43.280Z,37.50
2019-04-25T13:24:12.990Z,37.20
2019-04-25T13:26:43.635Z,36.50
2019-04-25T13:29:33.220Z,34.80
2019-04-25T13:32:09.982Z,33.30
2019-04-25T13:34:46.502Z,32.60
2019-04-25T13:37:16.562Z,33.20
2019-04-25T13:39:47.292Z,32.60
2019-04-25T13:42:16.613Z,32.50
2019-04-25T13:44:45.947Z,31.50
2019-04-25T13:47:15.446Z,31.00
2019-04-25T13:49:45.070Z,31.10
2019-04-25T13:52:14.588Z,30.70
2019-04-25T13:54:43.758Z,29.60
2019-04-25T13:57:13.340Z,29.90
2019-04-25T13:59:44.341Z,29.50
2019-04-25T14:02:14.179Z,29.50
2019-04-25T14:04:44.252Z,29.90
2019-04-25T14:07:13.512Z,29.60
2019-04-25T14:09:43.255Z,29.40
2019-04-25T14:12:14.005Z,29.30
2019-04-25T14:14:44.176Z,29.20
2019-04-25T14:17:18.065Z,29.10
2019-04-25T14:19:48.717Z,29.20
2019-04-25T14:22:17.901Z,29.20
2019-04-25T14:24:47.192Z,29.10
2019-04-25T14:27:16.447Z,29.50
2019-04-25T14:29:45.463Z,29.60
2019-04-25T14:32:15.590Z,29.30
2019-04-25T14:34:44.700Z,29.20
2019-04-25T14:37:13.711Z,29.00
2019-04-25T14:39:42.764Z,29.10
2019-04-25T14:42:11.917Z,29.30
2019-04-25T14:44:40.960Z,29.60
2019-04-25T14:47:10.050Z,29.70
2019-04-25T14:49:39.029Z,29.30
2019-04-25T14:52:08.037Z,29.00
2019-04-25T14:54:47.765Z,29.00
2019-04-25T14:57:24.615Z,29.00
2019-04-25T14:59:53.793Z,29.10
2019-04-25T15:02:25.773Z,29.10
2019-04-25T15:04:55.165Z,29.20
2019-04-25T15:07:24.453Z,29.40
2019-04-25T15:09:53.621Z,29.80
2019-04-25T15:12:23.567Z,29.80
2019-04-25T15:14:53.034Z,29.40
2019-04-25T15:17:23.584Z,29.10
2019-04-25T15:19:53.070Z,29.40
2019-04-25T15:22:23.220Z,29.50
2019-04-25T15:24:53.265Z,29.60
2019-04-25T15:27:22.682Z,29.40
2019-04-25T15:29:51.849Z,29.30
2019-04-25T15:32:22.573Z,29.40
2019-04-25T15:34:53.275Z,29.60
2019-04-25T15:37:35.142Z,29.80
2019-04-25T15:40:09.512Z,29.70
2019-04-25T15:42:49.283Z,29.90
2019-04-25T15:45:23.398Z,30.00
2019-04-25T15:47:53.196Z,29.70
2019-04-25T15:50:22.379Z,30.00
2019-04-25T15:52:51.728Z,30.00
2019-04-25T15:55:21.233Z,30.00
2019-04-25T15:57:50.418Z,30.10
2019-04-25T16:00:24.140Z,30.00
2019-04-25T16:02:53.167Z,30.20
2019-04-25T16:05:22.314Z,30.00
2019-04-25T16:07:51.314Z,30.00
2019-04-25T16:10:20.494Z,30.10
2019-04-25T16:12:49.443Z,30.40
2019-04-25T16:15:18.558Z,30.90
2019-04-25T16:17:47.600Z,30.70
2019-04-25T16:20:16.626Z,30.30
2019-04-25T16:22:45.845Z,30.50
2019-04-25T16:25:15.602Z,30.70
2019-04-25T16:27:45.449Z,31.40
2019-04-25T16:30:15.137Z,31.60
2019-04-25T16:32:44.261Z,31.80
2019-04-25T16:35:17.482Z,31.80
2019-04-25T16:37:46.707Z,32.00
2019-04-25T16:40:15.879Z,32.20
2019-04-25T16:42:45.021Z,32.10
2019-04-25T16:45:14.355Z,31.60
2019-04-25T16:47:43.763Z,31.50
2019-04-25T16:50:14.799Z,31.80
2019-04-25T16:52:44.113Z,31.90
2019-04-25T16:55:13.510Z,32.10
2019-04-25T16:57:42.686Z,32.00
2019-04-25T17:00:19.996Z,31.80
2019-04-25T17:02:49.219Z,32.10
2019-04-25T17:05:19.977Z,31.70
2019-04-25T17:07:49.163Z,31.80
2019-04-25T17:10:18.896Z,31.80
2019-04-25T17:12:48.227Z,31.70
2019-04-25T17:15:34.240Z,31.50
2019-04-25T17:18:13.827Z,31.30
2019-04-25T17:20:56.132Z,31.30
2019-04-25T17:23:25.122Z,31.70
2019-04-25T17:25:54.258Z,31.40
2019-04-25T17:28:23.401Z,31.00
2019-04-25T17:30:54.111Z,31.30
2019-04-25T17:33:34.157Z,31.40
2019-04-25T17:36:13.728Z,31.50
2019-04-25T17:38:44.474Z,31.50
2019-04-25T17:41:20.703Z,31.70
2019-04-25T17:43:49.768Z,31.60
2019-04-25T17:46:20.574Z,31.60
2019-04-25T17:48:49.732Z,31.80
2019-04-25T17:51:18.983Z,31.90
2019-04-25T17:53:48.083Z,31.60
2019-04-25T17:56:17.513Z,31.50
2019-04-25T17:58:46.774Z,31.50
2019-04-25T18:01:17.618Z,31.80
2019-04-25T18:03:46.611Z,31.90
2019-04-25T18:06:15.638Z,32.00
2019-04-25T18:08:44.850Z,32.40
2019-04-25T18:11:14.000Z,32.20
2019-04-25T18:13:43.397Z,32.80
2019-04-25T18:16:16.497Z,32.60
2019-04-25T18:18:47.234Z,32.80
2019-04-25T18:21:16.184Z,32.90
2019-04-25T18:23:49.903Z,33.00
2019-04-25T18:26:35.437Z,33.00
2019-04-25T18:29:09.490Z,33.50
2019-04-25T18:31:39.586Z,33.60
2019-04-25T18:34:13.549Z,33.50
2019-04-25T18:36:50.012Z,33.60
2019-04-25T18:39:32.323Z,33.80
2019-04-25T18:42:03.023Z,33.80
2019-04-25T18:44:32.066Z,34.00
2019-04-25T18:47:05.248Z,34.30
2019-04-25T18:49:34.471Z,34.10
2019-04-25T18:52:05.323Z,34.30
2019-04-25T18:54:39.328Z,34.10
2019-04-25T18:57:10.092Z,34.10
2019-04-25T18:59:56.933Z,34.20
2019-04-25T19:02:43.849Z,34.30
2019-04-25T19:05:23.936Z,34.30
2019-04-25T19:07:53.109Z,34.60
2019-04-25T19:10:22.210Z,34.50
2019-04-25T19:12:51.942Z,34.50
2019-04-25T19:15:21.369Z,34.70
2019-04-25T19:17:50.583Z,35.30
2019-04-25T19:20:19.687Z,35.80
2019-04-25T19:22:48.692Z,36.60
2019-04-25T19:25:17.926Z,36.70
2019-04-25T19:27:47.053Z,38.00
2019-04-25T19:30:18.337Z,38.60
2019-04-25T19:32:47.379Z,38.10
2019-04-25T19:35:16.642Z,38.10
2019-04-25T19:37:46.460Z,38.30
2019-04-25T19:40:32.670Z,39.90
2019-04-25T19:43:03.565Z,40.30
2019-04-25T19:45:33.384Z,40.10
2019-04-25T19:48:02.692Z,39.80
2019-04-25T19:50:31.691Z,40.30
2019-04-25T19:53:00.775Z,41.10
2019-04-25T19:55:29.913Z,40.90
2019-04-25T19:57:59.069Z,41.40
2019-04-25T20:00:28.348Z,40.50
2019-04-25T20:03:04.804Z,41.00
2019-04-25T20:05:38.290Z,40.40
2019-04-25T20:08:17.789Z,40.40
2019-04-25T20:10:48.964Z,40.80
2019-04-25T20:13:18.043Z,42.30
2019-04-25T20:15:47.616Z,43.40
2019-04-25T20:18:17.124Z,44.10
2019-04-25T20:20:46.314Z,44.60
2019-04-25T20:23:15.433Z,45.50
2019-04-25T20:25:45.370Z,46.00
2019-04-25T20:28:15.403Z,46.50
2019-04-25T20:30:45.989Z,48.40
2019-04-25T20:33:15.738Z,49.90
2019-04-25T20:35:44.827Z,52.80
2019-04-25T20:38:15.148Z,54.50
2019-04-25T20:40:45.185Z,56.30
2019-04-25T20:43:15.254Z,57.10
2019-04-25T20:45:44.241Z,58.70
2019-04-25T20:48:13.345Z,61.20
2019-04-25T20:50:42.688Z,61.40
2019-04-25T20:53:11.671Z,61.30
2019-04-25T20:55:41.104Z,65.00
2019-04-25T20:58:10.129Z,67.60
2019-04-25T21:00:41.971Z,66.60
2019-04-25T21:03:10.981Z,65.70
2019-04-25T21:05:40.736Z,67.40
2019-04-25T21:08:09.756Z,69.50
2019-04-25T21:10:39.152Z,71.60
2019-04-25T21:13:09.816Z,75.10
2019-04-25T21:15:40.629Z,75.90
2019-04-25T21:18:27.454Z,78.20
2019-04-25T21:20:57.118Z,78.60
2019-04-25T21:23:26.421Z,80.10
2019-04-25T21:25:55.718Z,81.00
2019-04-25T21:28:24.742Z,82.30
2019-04-25T21:30:54.563Z,82.70
2019-04-25T21:33:24.039Z,83.80
2019-04-25T21:35:53.311Z,83.60
2019-04-25T21:38:22.732Z,84.10
2019-04-25T21:40:59.921Z,85.60
2019-04-25T21:43:33.617Z,85.40
2019-04-25T21:46:03.192Z,85.60
2019-04-25T21:48:32.606Z,86.60
2019-04-25T21:51:03.664Z,87.80
2019-04-25T21:53:32.648Z,86.60
2019-04-25T21:56:01.983Z,87.30
2019-04-25T21:58:31.165Z,86.90
2019-04-25T22:01:02.579Z,86.90
2019-04-25T22:03:31.618Z,87.00
2019-04-25T22:06:01.034Z,86.80
2019-04-25T22:08:30.143Z,86.80
2019-04-25T22:11:01.220Z,87.70
2019-04-25T22:13:30.248Z,88.40
2019-04-25T22:15:59.650Z,87.60
2019-04-25T22:18:29.305Z,87.90
2019-04-25T22:20:58.524Z,88.30
2019-04-25T22:23:27.682Z,86.90
2019-04-25T22:25:57.970Z,86.90
2019-04-25T22:28:28.282Z,87.10
2019-04-25T22:30:59.340Z,87.40
2019-04-25T22:33:36.181Z,87.60
2019-04-25T22:36:06.943Z,87.90
2019-04-25T22:38:36.072Z,88.10
2019-04-25T22:41:05.583Z,88.00
2019-04-25T22:43:36.477Z,88.40
2019-04-25T22:46:06.182Z,88.20
2019-04-25T22:48:50.572Z,87.80
2019-04-25T22:51:19.589Z,87.90
2019-04-25T22:53:48.893Z,87.80
2019-04-25T22:56:18.128Z,88.00
2019-04-25T22:58:47.190Z,87.70
2019-04-25T23:01:24.019Z,87.90
2019-04-25T23:03:54.739Z,88.00
2019-04-25T23:06:23.928Z,87.80
2019-04-25T23:08:52.983Z,88.00
2019-04-25T23:11:22.179Z,88.60
2019-04-25T23:13:51.544Z,88.40
2019-04-25T23:16:20.841Z,88.40
2019-04-25T23:18:49.844Z,88.50
2019-04-25T23:21:19.103Z,88.40
2019-04-25T23:23:48.247Z,87.80
2019-04-25T23:26:22.945Z,87.50
2019-04-25T23:28:54.217Z,87.70
2019-04-25T23:31:27.852Z,88.30
2019-04-25T23:33:57.272Z,87.90
2019-04-25T23:36:26.203Z,87.50
2019-04-25T23:38:55.286Z,88.10
2019-04-25T23:41:24.555Z,88.20
2019-04-25T23:43:53.773Z,88.00
2019-04-25T23:46:23.108Z,87.80
2019-04-25T23:48:52.193Z,88.70
2019-04-25T23:51:21.435Z,88.80
2019-04-25T23:53:50.687Z,88.50
2019-04-25T23:56:19.689Z,89.10
2019-04-25T23:58:49.098Z,89.30
